Time;durP1;ratioP1;P1;durP2;ratioP2;P2;SDS_P1;SDS_P2;PMS_P1;PMS_P2;Temp;Humidity;BMP_temperature;BMP_pressure;BME280_temperature;BME280_humidity;BME280_pressure;Samples;Min_cycle;Max_cycle;Signal;HPM_P1;HPM_P2
2024/02/26 00:01:00;;;;;;;;;;;3.20;99.90;;;;;;2059761;28;19973;-72
2024/02/26 00:02:00;;;;;;;;;;;3.20;99.90;;;;;;2059808;28;19928;-71
2024/02/26 00:03:01;;;;;;;;;;;3.20;99.90;;;;;;2061096;28;19914;-72
2024/02/26 00:04:02;;;;;;;;;;;3.20;99.90;;;;;;2044146;28;19914;-71
2024/02/26 00:05:06;;;;;;;;;;;3.20;99.90;;;;;;2055200;28;19914;-71
2024/02/26 00:06:07;;;;;;;;;;;3.20;99.90;;;;;;2056247;28;20245;-72
2024/02/26 00:07:07;;;;;;;;;;;3.20;99.90;;;;;;2059868;28;20372;-71
2024/02/26 00:08:07;;;;;;;;;;;3.10;99.90;;;;;;2055595;28;19918;-73
2024/02/26 00:09:08;;;;;;;;;;;3.10;99.90;;;;;;2055345;28;19941;-72
2024/02/26 00:10:09;;;;;;;;;;;3.10;99.90;;;;;;2059372;28;20340;-71
2024/02/26 00:11:10;;;;;;;;;;;3.10;99.90;;;;;;2056239;28;20136;-72
2024/02/26 00:12:10;;;;;;;;;;;3.10;99.90;;;;;;2059948;28;19921;-71
2024/02/26 00:13:10;;;;;;;;;;;3.00;99.90;;;;;;2059942;28;20423;-72
2024/02/26 00:14:11;;;;;;;;;;;3.10;99.90;;;;;;2060171;28;19945;-73
2024/02/26 00:15:11;;;;;;;;;;;3.00;99.90;;;;;;2058948;28;19913;-71
2024/02/26 00:16:12;;;;;;;;;;;3.00;99.90;;;;;;2056970;28;20315;-72
2024/02/26 00:17:13;;;;;;;;;;;3.00;99.90;;;;;;2060050;28;19914;-72
2024/02/26 00:18:14;;;;;;;;;;;3.00;99.90;;;;;;2060108;28;20320;-71
2024/02/26 00:19:14;;;;;;;;;;;3.00;99.90;;;;;;2059688;28;19914;-71
2024/02/26 00:20:15;;;;;;;;;;;3.00;99.90;;;;;;2060242;28;20012;-72
2024/02/26 00:21:15;;;;;;;;;;;3.00;99.90;;;;;;2058416;28;19962;-71
2024/02/26 00:22:16;;;;;;;;;;;3.00;99.90;;;;;;2051218;28;19982;-71
2024/02/26 00:23:16;;;;;;;;;;;3.00;99.90;;;;;;2056203;28;19921;-71
2024/02/26 00:24:16;;;;;;;;;;;3.00;99.90;;;;;;2056119;28;20370;-71
2024/02/26 00:25:17;;;;;;;;;;;3.00;99.90;;;;;;2051310;28;19932;-71
2024/02/26 00:26:18;;;;;;;;;;;3.00;99.90;;;;;;2055103;28;19913;-72
2024/02/26 00:27:18;;;;;;;;;;;2.90;99.90;;;;;;2060063;28;19928;-72
2024/02/26 00:28:19;;;;;;;;;;;2.90;99.90;;;;;;2060023;28;20402;-72
2024/02/26 00:29:21;;;;;;;;;;;2.90;99.90;;;;;;2060003;28;19916;-72
2024/02/26 00:30:23;;;;;;;;;;;2.90;99.90;;;;;;2059436;28;20406;-71
2024/02/26 00:31:23;;;;;;;;;;;2.90;99.90;;;;;;2049066;28;19953;-71
2024/02/26 00:32:24;;;;;;;;;;;2.90;99.90;;;;;;2056715;28;19917;-71
2024/02/26 00:33:24;;;;;;;;;;;2.90;99.90;;;;;;2057484;28;20062;-71
2024/02/26 00:34:25;;;;;;;;;;;2.90;99.90;;;;;;2059525;28;19972;-71
2024/02/26 00:35:25;;;;;;;;;;;2.90;99.90;;;;;;2053804;28;19910;-72
2024/02/26 00:36:26;;;;;;;;;;;3.00;99.90;;;;;;2055510;28;19914;-72
2024/02/26 00:37:26;;;;;;;;;;;3.00;99.90;;;;;;2058218;28;19997;-72
2024/02/26 00:38:27;;;;;;;;;;;2.90;99.90;;;;;;2059261;28;19937;-72
2024/02/26 00:39:27;;;;;;;;;;;2.90;99.90;;;;;;2056732;28;20319;-72
2024/02/26 00:40:28;;;;;;;;;;;2.90;99.90;;;;;;2059650;28;19917;-71
2024/02/26 00:41:29;;;;;;;;;;;2.90;99.90;;;;;;2060733;28;20309;-72
2024/02/26 00:42:29;;;;;;;;;;;2.90;99.90;;;;;;2059849;28;19971;-71
2024/02/26 00:43:29;;;;;;;;;;;2.90;99.90;;;;;;2060768;28;19961;-72
2024/02/26 00:44:30;;;;;;;;;;;2.80;99.90;;;;;;2060580;28;19940;-72
2024/02/26 00:45:32;;;;;;;;;;;2.80;99.90;;;;;;2057252;28;19909;-72
2024/02/26 00:46:32;;;;;;;;;;;2.80;99.90;;;;;;2056375;28;19914;-72
2024/02/26 00:47:33;;;;;;;;;;;2.80;99.90;;;;;;2054814;28;20009;-72
2024/02/26 00:48:33;;;;;;;;;;;2.80;99.90;;;;;;2052490;28;20081;-72
2024/02/26 00:49:34;;;;;;;;;;;2.70;99.90;;;;;;2053627;28;20513;-73
2024/02/26 00:50:34;;;;;;;;;;;2.70;99.90;;;;;;2059012;28;19924;-72
2024/02/26 00:51:35;;;;;;;;;;;2.80;99.90;;;;;;2060493;28;20003;-72
2024/02/26 00:52:35;;;;;;;;;;;2.80;99.90;;;;;;2059569;28;19922;-72
2024/02/26 00:53:36;;;;;;;;;;;2.70;99.90;;;;;;2055150;28;20303;-71
2024/02/26 00:54:36;;;;;;;;;;;2.80;99.90;;;;;;2059167;28;19972;-72
2024/02/26 00:55:37;;;;;;;;;;;2.70;99.90;;;;;;2058900;28;19910;-72
2024/02/26 00:56:37;;;;;;;;;;;2.70;99.90;;;;;;2059591;28;19946;-72
2024/02/26 00:57:38;;;;;;;;;;;2.70;99.90;;;;;;2059405;28;19945;-72
2024/02/26 00:58:39;;;;;;;;;;;2.70;99.90;;;;;;2054209;28;19953;-72
2024/02/26 00:59:39;;;;;;;;;;;2.70;99.90;;;;;;2055137;28;19909;-72
2024/02/26 01:00:39;;;;;;;;;;;2.70;99.90;;;;;;2059765;28;19913;-72
2024/02/26 01:01:40;;;;;;;;;;;2.70;99.90;;;;;;2059356;28;20396;-72
2024/02/26 01:02:41;;;;;;;;;;;2.70;99.90;;;;;;2056908;28;19914;-72
2024/02/26 01:03:42;;;;;;;;;;;2.70;99.90;;;;;;2058685;28;19910;-72
2024/02/26 01:04:42;;;;;;;;;;;2.70;99.90;;;;;;2059459;28;19910;-72
2024/02/26 01:05:43;;;;;;;;;;;2.80;99.90;;;;;;2055200;28;20060;-72
2024/02/26 01:06:43;;;;;;;;;;;2.80;99.90;;;;;;2058806;28;20407;-72
2024/02/26 01:07:44;;;;;;;;;;;2.80;99.90;;;;;;2059565;28;20311;-72
2024/02/26 01:08:44;;;;;;;;;;;2.80;99.90;;;;;;2052436;28;19920;-72
2024/02/26 01:09:44;;;;;;;;;;;2.70;99.90;;;;;;2058828;28;20004;-72
2024/02/26 01:10:45;;;;;;;;;;;2.70;99.90;;;;;;2055688;28;19933;-72
2024/02/26 01:11:46;;;;;;;;;;;2.70;99.90;;;;;;2055826;28;19914;-72
2024/02/26 01:12:47;;;;;;;;;;;2.70;99.90;;;;;;2059422;28;20309;-71
2024/02/26 01:13:48;;;;;;;;;;;2.60;99.90;;;;;;2052959;28;20086;-71
2024/02/26 01:14:48;;;;;;;;;;;2.60;99.90;;;;;;2059655;28;19924;-72
2024/02/26 01:15:49;;;;;;;;;;;2.60;99.90;;;;;;2058616;28;19910;-72
2024/02/26 01:16:49;;;;;;;;;;;2.50;99.90;;;;;;2060520;28;19945;-72
2024/02/26 01:17:50;;;;;;;;;;;2.60;99.90;;;;;;2059724;28;19972;-72
2024/02/26 01:18:51;;;;;;;;;;;2.50;99.90;;;;;;2058563;28;19910;-72
2024/02/26 01:19:53;;;;;;;;;;;2.50;99.90;;;;;;2059110;28;19949;-72
2024/02/26 01:20:54;;;;;;;;;;;2.50;99.90;;;;;;2051734;28;19939;-73
2024/02/26 01:21:54;;;;;;;;;;;2.50;99.90;;;;;;2058583;28;20484;-72
2024/02/26 01:22:55;;;;;;;;;;;2.50;99.90;;;;;;2058778;28;19941;-72
2024/02/26 01:23:55;;;;;;;;;;;2.50;99.90;;;;;;2055362;28;20003;-71
2024/02/26 01:24:56;;;;;;;;;;;2.50;99.90;;;;;;2059005;28;20426;-71
2024/02/26 01:25:57;;;;;;;;;;;2.50;99.90;;;;;;2047248;28;19957;-72
2024/02/26 01:26:57;;;;;;;;;;;2.50;99.90;;;;;;2058794;28;19976;-72
2024/02/26 01:27:58;;;;;;;;;;;2.50;99.90;;;;;;2058803;28;19909;-72
2024/02/26 01:28:58;;;;;;;;;;;2.60;99.90;;;;;;2058926;28;20353;-73
2024/02/26 01:29:59;;;;;;;;;;;2.50;99.90;;;;;;2059532;28;19993;-72
2024/02/26 01:30:59;;;;;;;;;;;2.50;99.90;;;;;;2051840;28;20368;-72
2024/02/26 01:32:00;;;;;;;;;;;2.50;99.90;;;;;;2055591;28;19914;-73
2024/02/26 01:33:00;;;;;;;;;;;2.50;99.90;;;;;;2055226;28;20358;-72
2024/02/26 01:34:01;;;;;;;;;;;2.50;99.90;;;;;;2052561;28;19975;-72
2024/02/26 01:35:07;;;;;;;;;;;2.50;99.90;;;;;;2056084;28;19920;-72
2024/02/26 01:36:07;;;;;;;;;;;2.50;99.90;;;;;;2058848;28;19920;-72
2024/02/26 01:37:08;;;;;;;;;;;2.50;99.90;;;;;;2054811;28;19937;-73
2024/02/26 01:38:08;;;;;;;;;;;2.50;99.90;;;;;;2059012;28;19909;-72
2024/02/26 01:39:12;;;;;;;;;;;2.50;99.90;;;;;;2050963;28;19910;-72
2024/02/26 01:40:17;;;;;;;;;;;2.50;99.90;;;;;;2053372;28;19917;-74
2024/02/26 01:41:18;;;;;;;;;;;2.50;99.90;;;;;;2054770;28;20005;-74
2024/02/26 01:42:18;;;;;;;;;;;2.50;99.90;;;;;;2057187;28;19938;-74
2024/02/26 01:43:19;;;;;;;;;;;2.50;99.90;;;;;;2059698;28;20380;-75
2024/02/26 01:44:19;;;;;;;;;;;2.50;99.90;;;;;;2059283;28;19969;-75
2024/02/26 01:45:24;;;;;;;;;;;2.50;99.90;;;;;;2060160;28;20009;-74
2024/02/26 01:46:25;;;;;;;;;;;2.40;99.90;;;;;;2061415;28;19930;-74
2024/02/26 01:47:26;;;;;;;;;;;2.40;99.90;;;;;;2058283;28;19957;-73
2024/02/26 01:48:26;;;;;;;;;;;2.40;99.90;;;;;;2055713;28;19971;-73
2024/02/26 01:49:27;;;;;;;;;;;2.40;99.90;;;;;;2060544;28;20407;-74
2024/02/26 01:50:28;;;;;;;;;;;2.40;99.90;;;;;;2056974;28;19914;-73
2024/02/26 01:51:29;;;;;;;;;;;2.40;99.90;;;;;;2061261;28;19941;-73
2024/02/26 01:52:30;;;;;;;;;;;2.40;99.90;;;;;;2052175;28;19925;-75
2024/02/26 01:53:30;;;;;;;;;;;2.40;99.90;;;;;;2052397;28;20189;-75
2024/02/26 01:54:31;;;;;;;;;;;2.40;99.90;;;;;;2061185;28;20443;-75
2024/02/26 01:55:32;;;;;;;;;;;2.30;99.90;;;;;;2058286;28;20317;-74
2024/02/26 01:56:33;;;;;;;;;;;2.30;99.90;;;;;;2059403;28;19913;-73
2024/02/26 01:57:34;;;;;;;;;;;2.30;99.90;;;;;;2060129;28;20001;-73
2024/02/26 01:58:35;;;;;;;;;;;2.30;99.90;;;;;;2057021;28;20331;-73
2024/02/26 01:59:35;;;;;;;;;;;2.40;99.90;;;;;;2061031;28;19910;-73
2024/02/26 02:00:36;;;;;;;;;;;2.40;99.90;;;;;;2061006;28;20332;-73
2024/02/26 02:01:37;;;;;;;;;;;2.40;99.90;;;;;;2060798;28;19917;-73
2024/02/26 02:02:38;;;;;;;;;;;2.40;99.90;;;;;;2059895;28;19914;-73
2024/02/26 02:03:41;;;;;;;;;;;2.50;99.90;;;;;;2061229;28;20011;-74
2024/02/26 02:04:42;;;;;;;;;;;2.50;99.90;;;;;;2056958;28;19936;-74
2024/02/26 02:05:42;;;;;;;;;;;2.50;99.90;;;;;;2057657;28;19909;-74
2024/02/26 02:06:45;;;;;;;;;;;2.50;99.90;;;;;;2061006;28;19914;-73
2024/02/26 02:07:46;;;;;;;;;;;2.40;99.90;;;;;;2061130;28;19918;-73
2024/02/26 02:08:46;;;;;;;;;;;2.40;99.90;;;;;;2061043;28;19968;-74
2024/02/26 02:09:47;;;;;;;;;;;2.40;99.90;;;;;;2060932;28;20287;-74
2024/02/26 02:10:48;;;;;;;;;;;2.40;99.90;;;;;;2061094;28;19913;-73
2024/02/26 02:11:49;;;;;;;;;;;2.40;99.90;;;;;;2055779;28;20440;-74
2024/02/26 02:12:50;;;;;;;;;;;2.40;99.90;;;;;;2058004;28;19918;-73
2024/02/26 02:13:50;;;;;;;;;;;2.40;99.90;;;;;;2060094;28;20421;-73
2024/02/26 02:14:51;;;;;;;;;;;2.40;99.90;;;;;;2057262;28;19946;-77
2024/02/26 02:15:52;;;;;;;;;;;2.50;99.90;;;;;;2061177;28;19913;-72
2024/02/26 02:16:52;;;;;;;;;;;2.50;99.90;;;;;;2056191;28;20400;-75
2024/02/26 02:17:53;;;;;;;;;;;2.40;99.90;;;;;;2057837;28;19909;-73
2024/02/26 02:18:53;;;;;;;;;;;2.40;99.90;;;;;;2060792;28;19940;-73
2024/02/26 02:19:54;;;;;;;;;;;2.40;99.90;;;;;;2061114;28;19913;-73
2024/02/26 02:20:56;;;;;;;;;;;2.40;99.90;;;;;;2056848;28;19989;-74
2024/02/26 02:21:57;;;;;;;;;;;2.40;99.90;;;;;;2061128;28;20003;-74
2024/02/26 02:22:57;;;;;;;;;;;2.40;99.90;;;;;;2060802;28;19992;-74
2024/02/26 02:23:57;;;;;;;;;;;2.40;99.90;;;;;;2060874;28;19909;-75
2024/02/26 02:24:58;;;;;;;;;;;2.40;99.90;;;;;;2057110;28;19917;-75
2024/02/26 02:25:59;;;;;;;;;;;2.40;99.90;;;;;;2060821;28;19914;-74
2024/02/26 02:26:59;;;;;;;;;;;2.40;99.90;;;;;;2061066;28;19910;-75
2024/02/26 02:28:00;;;;;;;;;;;2.40;99.90;;;;;;2060572;28;20039;-74
2024/02/26 02:29:02;;;;;;;;;;;2.30;99.90;;;;;;2060234;28;19921;-74
2024/02/26 02:30:03;;;;;;;;;;;2.40;99.90;;;;;;2053709;28;20304;-74
2024/02/26 02:31:04;;;;;;;;;;;2.30;99.90;;;;;;2054486;28;20439;-74
2024/02/26 02:32:04;;;;;;;;;;;2.30;99.90;;;;;;2057934;28;19965;-74
2024/02/26 02:33:05;;;;;;;;;;;2.40;99.90;;;;;;2060856;28;19913;-74
2024/02/26 02:34:05;;;;;;;;;;;2.30;99.90;;;;;;2058827;28;19924;-73
2024/02/26 02:35:06;;;;;;;;;;;2.30;99.90;;;;;;2056861;28;19948;-72
2024/02/26 02:36:09;;;;;;;;;;;2.30;99.90;;;;;;2060914;28;19921;-74
2024/02/26 02:37:10;;;;;;;;;;;2.30;99.90;;;;;;2059524;28;19918;-74
2024/02/26 02:38:10;;;;;;;;;;;2.20;99.90;;;;;;2055143;28;19914;-74
2024/02/26 02:39:11;;;;;;;;;;;2.20;99.90;;;;;;2056041;28;19921;-73
2024/02/26 02:40:11;;;;;;;;;;;2.30;99.90;;;;;;2051459;28;19921;-75
2024/02/26 02:41:12;;;;;;;;;;;2.20;99.90;;;;;;2055939;28;19910;-75
2024/02/26 02:42:12;;;;;;;;;;;2.20;99.90;;;;;;2068294;28;19916;-74
2024/02/26 02:43:13;;;;;;;;;;;2.10;99.90;;;;;;2068065;28;19909;-75
2024/02/26 02:44:13;;;;;;;;;;;2.20;99.90;;;;;;2056715;28;20063;-75
2024/02/26 02:45:14;;;;;;;;;;;2.10;99.90;;;;;;2060741;28;19914;-75
2024/02/26 02:46:14;;;;;;;;;;;2.10;99.90;;;;;;2056975;28;19925;-74
2024/02/26 02:47:15;;;;;;;;;;;2.10;99.90;;;;;;2057247;28;19914;-75
2024/02/26 02:48:15;;;;;;;;;;;2.10;99.90;;;;;;2059982;28;19920;-75
2024/02/26 02:49:16;;;;;;;;;;;2.00;99.90;;;;;;2060792;28;20291;-75
2024/02/26 02:50:17;;;;;;;;;;;2.00;99.90;;;;;;2060536;28;19914;-74
2024/02/26 02:51:17;;;;;;;;;;;2.00;99.90;;;;;;2060522;28;20569;-75
2024/02/26 02:52:18;;;;;;;;;;;2.10;99.90;;;;;;2060504;28;19976;-75
2024/02/26 02:53:18;;;;;;;;;;;2.10;99.90;;;;;;2060753;28;19977;-75
2024/02/26 02:54:19;;;;;;;;;;;2.10;99.90;;;;;;2057477;28;19914;-75
2024/02/26 02:55:19;;;;;;;;;;;2.10;99.90;;;;;;2056748;28;20364;-76
2024/02/26 02:56:19;;;;;;;;;;;2.10;99.90;;;;;;2060000;28;19939;-75
2024/02/26 02:57:20;;;;;;;;;;;2.10;99.90;;;;;;2052418;28;19913;-74
2024/02/26 02:58:21;;;;;;;;;;;2.00;99.90;;;;;;2060117;28;19995;-73
2024/02/26 02:59:21;;;;;;;;;;;2.10;99.90;;;;;;2056510;28;19917;-74
2024/02/26 03:00:22;;;;;;;;;;;2.10;99.90;;;;;;2060789;28;19910;-73
2024/02/26 03:01:23;;;;;;;;;;;2.10;99.90;;;;;;2060625;28;19929;-74
2024/02/26 03:02:27;;;;;;;;;;;2.10;99.90;;;;;;2056718;28;20396;-74
2024/02/26 03:03:28;;;;;;;;;;;2.10;99.90;;;;;;2052429;28;19945;-74
2024/02/26 03:04:29;;;;;;;;;;;2.10;99.90;;;;;;2057529;28;19910;-74
2024/02/26 03:05:29;;;;;;;;;;;2.10;99.90;;;;;;2059731;28;19988;-74
2024/02/26 03:06:30;;;;;;;;;;;2.10;99.90;;;;;;2058452;28;19917;-74
2024/02/26 03:07:30;;;;;;;;;;;2.20;99.90;;;;;;2059795;28;19910;-74
2024/02/26 03:08:31;;;;;;;;;;;2.20;99.90;;;;;;2057392;28;19920;-74
2024/02/26 03:09:32;;;;;;;;;;;2.20;99.90;;;;;;2060605;28;19913;-73
2024/02/26 03:10:32;;;;;;;;;;;2.10;99.90;;;;;;2056690;28;19945;-74
2024/02/26 03:11:33;;;;;;;;;;;2.10;99.90;;;;;;2060867;28;19960;-74
2024/02/26 03:12:33;;;;;;;;;;;2.10;99.90;;;;;;2060089;28;19932;-74
2024/02/26 03:13:34;;;;;;;;;;;2.10;99.90;;;;;;2060740;28;19918;-74
2024/02/26 03:14:34;;;;;;;;;;;2.10;99.90;;;;;;2056601;28;20396;-74
2024/02/26 03:15:35;;;;;;;;;;;2.10;99.90;;;;;;2060545;28;19949;-74
2024/02/26 03:16:35;;;;;;;;;;;2.10;99.90;;;;;;2059659;28;19918;-75
2024/02/26 03:17:36;;;;;;;;;;;2.10;99.90;;;;;;2057570;28;19920;-75
2024/02/26 03:18:38;;;;;;;;;;;2.20;99.90;;;;;;2060435;28;20060;-74
2024/02/26 03:19:39;;;;;;;;;;;2.10;99.90;;;;;;2056470;28;19932;-74
2024/02/26 03:20:39;;;;;;;;;;;2.10;99.90;;;;;;2060829;28;19910;-74
2024/02/26 03:21:39;;;;;;;;;;;2.10;99.90;;;;;;2060114;28;20443;-73
2024/02/26 03:22:40;;;;;;;;;;;2.10;99.90;;;;;;2060651;28;19909;-74
2024/02/26 03:23:40;;;;;;;;;;;2.10;99.90;;;;;;2058974;28;19920;-73
2024/02/26 03:24:41;;;;;;;;;;;2.10;99.90;;;;;;2057594;28;20308;-73
2024/02/26 03:25:42;;;;;;;;;;;2.10;99.90;;;;;;2060462;28;19914;-74
2024/02/26 03:26:43;;;;;;;;;;;2.10;99.90;;;;;;2058740;28;19985;-74
2024/02/26 03:27:43;;;;;;;;;;;2.10;99.90;;;;;;2055143;28;20009;-73
2024/02/26 03:28:44;;;;;;;;;;;2.10;99.90;;;;;;2059891;28;19920;-78
2024/02/26 03:29:44;;;;;;;;;;;2.10;99.90;;;;;;2056780;28;19972;-68
2024/02/26 03:30:44;;;;;;;;;;;2.10;99.90;;;;;;2056534;28;19914;-75
2024/02/26 03:31:45;;;;;;;;;;;2.10;99.90;;;;;;2057813;28;19918;-77
2024/02/26 03:32:46;;;;;;;;;;;2.10;99.90;;;;;;2065176;28;20328;-69
2024/02/26 03:33:47;;;;;;;;;;;2.20;99.90;;;;;;2056527;28;19914;-68
2024/02/26 03:34:47;;;;;;;;;;;2.20;99.90;;;;;;2060248;28;19910;-69
2024/02/26 03:35:48;;;;;;;;;;;2.20;99.90;;;;;;2056114;28;20439;-69
2024/02/26 03:36:48;;;;;;;;;;;2.20;99.90;;;;;;2060561;28;19942;-69
2024/02/26 03:37:51;;;;;;;;;;;2.20;99.90;;;;;;2058084;28;19913;-68
2024/02/26 03:38:51;;;;;;;;;;;2.10;99.90;;;;;;2054457;28;19914;-68
2024/02/26 03:39:52;;;;;;;;;;;2.20;99.90;;;;;;2059990;28;20016;-69
2024/02/26 03:40:52;;;;;;;;;;;2.20;99.90;;;;;;2059565;28;19964;-68
2024/02/26 03:41:54;;;;;;;;;;;2.20;99.90;;;;;;2055555;28;20368;-68
2024/02/26 03:42:54;;;;;;;;;;;2.10;99.90;;;;;;2060346;28;19924;-68
2024/02/26 03:43:55;;;;;;;;;;;2.10;99.90;;;;;;2057594;28;19914;-69
2024/02/26 03:44:55;;;;;;;;;;;2.10;99.90;;;;;;2058899;28;19918;-69
2024/02/26 03:45:56;;;;;;;;;;;2.10;99.90;;;;;;2060240;28;19914;-69
2024/02/26 03:46:56;;;;;;;;;;;2.10;99.90;;;;;;2059978;28;19944;-68
2024/02/26 03:47:57;;;;;;;;;;;2.10;99.90;;;;;;2060372;28;19914;-70
2024/02/26 03:48:57;;;;;;;;;;;2.10;99.90;;;;;;2059985;28;20288;-68
2024/02/26 03:49:59;;;;;;;;;;;2.10;99.90;;;;;;2060198;28;19909;-69
2024/02/26 03:51:00;;;;;;;;;;;2.10;99.90;;;;;;2056257;28;20386;-70
2024/02/26 03:52:00;;;;;;;;;;;2.10;99.90;;;;;;2060014;28;19918;-68
2024/02/26 03:53:01;;;;;;;;;;;2.00;99.90;;;;;;2060229;28;19914;-68
2024/02/26 03:54:01;;;;;;;;;;;2.10;99.90;;;;;;2060110;28;19920;-70
2024/02/26 03:55:02;;;;;;;;;;;2.00;99.90;;;;;;2056135;28;19909;-69
2024/02/26 03:56:03;;;;;;;;;;;2.00;99.90;;;;;;2057080;28;19972;-68
2024/02/26 03:57:04;;;;;;;;;;;2.00;99.90;;;;;;2059465;28;19929;-69
2024/02/26 03:58:04;;;;;;;;;;;2.00;99.90;;;;;;2060060;28;19920;-69
2024/02/26 03:59:05;;;;;;;;;;;2.00;99.90;;;;;;2060047;28;20238;-68
2024/02/26 04:00:06;;;;;;;;;;;2.00;99.90;;;;;;2060174;28;19965;-68
2024/02/26 04:01:11;;;;;;;;;;;2.00;99.90;;;;;;2055785;28;19914;-69
2024/02/26 04:02:11;;;;;;;;;;;1.90;99.90;;;;;;2059124;28;19976;-69
2024/02/26 04:03:12;;;;;;;;;;;1.90;99.90;;;;;;2060079;28;19913;-69
2024/02/26 04:04:12;;;;;;;;;;;1.90;99.90;;;;;;2060138;28;20397;-69
2024/02/26 04:05:13;;;;;;;;;;;1.90;99.90;;;;;;2061850;28;19916;-68
2024/02/26 04:06:19;;;;;;;;;;;1.90;99.90;;;;;;2055380;28;20242;-69
2024/02/26 04:07:19;;;;;;;;;;;2.00;99.90;;;;;;2056189;28;19917;-69
2024/02/26 04:08:20;;;;;;;;;;;1.90;99.90;;;;;;2060155;28;19913;-69
2024/02/26 04:09:20;;;;;;;;;;;2.00;99.90;;;;;;2059089;28;19917;-68
2024/02/26 04:10:21;;;;;;;;;;;2.00;99.90;;;;;;2055889;28;19917;-69
2024/02/26 04:11:22;;;;;;;;;;;1.90;99.90;;;;;;2056349;28;20016;-69
2024/02/26 04:12:23;;;;;;;;;;;2.00;99.90;;;;;;2059487;28;20077;-69
2024/02/26 04:13:23;;;;;;;;;;;1.90;99.90;;;;;;2059328;28;20024;-69
2024/02/26 04:14:23;;;;;;;;;;;1.90;99.90;;;;;;2055360;28;19914;-69
2024/02/26 04:15:24;;;;;;;;;;;1.90;99.90;;;;;;2059265;28;19914;-69
2024/02/26 04:16:25;;;;;;;;;;;1.90;99.90;;;;;;2057766;28;19913;-69
2024/02/26 04:17:25;;;;;;;;;;;1.90;99.90;;;;;;2057531;28;20043;-69
2024/02/26 04:18:26;;;;;;;;;;;1.90;99.90;;;;;;2059778;28;19916;-69
2024/02/26 04:19:26;;;;;;;;;;;1.90;99.90;;;;;;2059858;28;20036;-69
2024/02/26 04:20:27;;;;;;;;;;;1.90;99.90;;;;;;2055850;28;20480;-69
2024/02/26 04:21:27;;;;;;;;;;;1.80;99.90;;;;;;2060623;28;19980;-69
2024/02/26 04:22:28;;;;;;;;;;;1.90;99.90;;;;;;2060026;28;19913;-69
2024/02/26 04:23:28;;;;;;;;;;;1.80;99.90;;;;;;2058701;28;19906;-69
2024/02/26 04:24:29;;;;;;;;;;;1.80;99.90;;;;;;2058038;28;19909;-69
2024/02/26 04:25:29;;;;;;;;;;;1.80;99.90;;;;;;2057000;28;19937;-69
2024/02/26 04:26:30;;;;;;;;;;;1.80;99.90;;;;;;2055470;28;19920;-69
2024/02/26 04:27:30;;;;;;;;;;;1.80;99.90;;;;;;2057506;28;19949;-69
2024/02/26 04:28:31;;;;;;;;;;;1.80;99.90;;;;;;2056793;28;20391;-68
2024/02/26 04:29:31;;;;;;;;;;;1.80;99.90;;;;;;2060255;28;19960;-69
2024/02/26 04:30:32;;;;;;;;;;;1.80;99.90;;;;;;2055520;28;19973;-68
2024/02/26 04:31:32;;;;;;;;;;;1.80;99.90;;;;;;2056524;28;20471;-69
2024/02/26 04:32:34;;;;;;;;;;;1.80;99.90;;;;;;2054155;28;19922;-68
2024/02/26 04:33:34;;;;;;;;;;;1.80;99.90;;;;;;2057867;28;20005;-68
2024/02/26 04:34:35;;;;;;;;;;;1.80;99.90;;;;;;2056031;28;19914;-69
2024/02/26 04:35:35;;;;;;;;;;;1.70;99.90;;;;;;2057602;28;19917;-68
2024/02/26 04:36:36;;;;;;;;;;;1.70;99.90;;;;;;2058119;28;20547;-70
2024/02/26 04:37:36;;;;;;;;;;;1.70;99.90;;;;;;2059646;28;19937;-67
2024/02/26 04:38:37;;;;;;;;;;;1.70;99.90;;;;;;2060032;28;20384;-69
2024/02/26 04:39:37;;;;;;;;;;;1.70;99.90;;;;;;2056949;28;19922;-68
2024/02/26 04:40:38;;;;;;;;;;;1.60;99.90;;;;;;2058064;28;19910;-68
2024/02/26 04:41:38;;;;;;;;;;;1.70;99.90;;;;;;2052987;28;23065;-68
2024/02/26 04:42:39;;;;;;;;;;;1.70;99.90;;;;;;2049378;28;19914;-69
2024/02/26 04:43:41;;;;;;;;;;;1.60;99.90;;;;;;2059218;28;19917;-69
2024/02/26 04:44:41;;;;;;;;;;;1.70;99.90;;;;;;2059691;28;19913;-69
2024/02/26 04:45:42;;;;;;;;;;;1.70;99.90;;;;;;2055690;28;19920;-69
2024/02/26 04:46:43;;;;;;;;;;;1.70;99.90;;;;;;2056640;28;19941;-67
2024/02/26 04:47:44;;;;;;;;;;;1.60;99.90;;;;;;2058755;28;19910;-69
2024/02/26 04:48:46;;;;;;;;;;;1.70;99.90;;;;;;2059305;28;20000;-70
2024/02/26 04:49:47;;;;;;;;;;;1.60;99.90;;;;;;2055186;28;19910;-69
2024/02/26 04:50:47;;;;;;;;;;;1.70;99.90;;;;;;2059346;28;19941;-69
2024/02/26 04:51:48;;;;;;;;;;;1.60;99.90;;;;;;2055941;28;19910;-69
2024/02/26 04:52:49;;;;;;;;;;;1.70;99.90;;;;;;2058855;28;20009;-70
2024/02/26 04:53:49;;;;;;;;;;;1.60;99.90;;;;;;2054906;28;20376;-69
2024/02/26 04:54:50;;;;;;;;;;;1.70;99.90;;;;;;2055882;28;19921;-69
2024/02/26 04:55:50;;;;;;;;;;;1.70;99.90;;;;;;2059323;28;20363;-69
2024/02/26 04:56:51;;;;;;;;;;;1.70;99.90;;;;;;2059535;28;20403;-69
2024/02/26 04:57:51;;;;;;;;;;;1.60;99.90;;;;;;2059452;28;19956;-69
2024/02/26 04:58:52;;;;;;;;;;;1.60;99.90;;;;;;2059772;28;19956;-69
2024/02/26 04:59:52;;;;;;;;;;;1.60;99.90;;;;;;2059733;28;20048;-68
2024/02/26 05:00:53;;;;;;;;;;;1.60;99.90;;;;;;2059171;28;19917;-69
2024/02/26 05:01:53;;;;;;;;;;;1.60;99.90;;;;;;2056240;28;19910;-69
2024/02/26 05:02:54;;;;;;;;;;;1.60;99.90;;;;;;2058375;28;20315;-70
2024/02/26 05:03:57;;;;;;;;;;;1.60;99.90;;;;;;2054884;28;19969;-70
2024/02/26 05:04:58;;;;;;;;;;;1.60;99.90;;;;;;2056684;28;20259;-69
2024/02/26 05:05:58;;;;;;;;;;;1.60;99.90;;;;;;2059148;28;20376;-68
2024/02/26 05:06:59;;;;;;;;;;;1.60;99.90;;;;;;2059278;28;19909;-68
2024/02/26 05:07:59;;;;;;;;;;;1.70;99.90;;;;;;2055666;28;19910;-69
2024/02/26 05:09:00;;;;;;;;;;;1.70;99.90;;;;;;2059820;28;20588;-69
2024/02/26 05:10:00;;;;;;;;;;;1.70;99.90;;;;;;2059430;28;19913;-69
2024/02/26 05:11:02;;;;;;;;;;;1.60;99.90;;;;;;2058782;28;19956;-69
2024/02/26 05:12:03;;;;;;;;;;;1.60;99.90;;;;;;2058533;28;20000;-69
2024/02/26 05:13:04;;;;;;;;;;;1.70;99.90;;;;;;2059691;28;19963;-69
2024/02/26 05:14:04;;;;;;;;;;;1.60;99.90;;;;;;2059386;28;19960;-69
2024/02/26 05:15:05;;;;;;;;;;;1.60;99.90;;;;;;2059660;28;20001;-70
2024/02/26 05:16:05;;;;;;;;;;;1.60;99.90;;;;;;2059156;28;20516;-70
2024/02/26 05:17:06;;;;;;;;;;;1.60;99.90;;;;;;2059559;28;19914;-69
2024/02/26 05:18:07;;;;;;;;;;;1.60;99.90;;;;;;2059709;28;20450;-69
2024/02/26 05:19:08;;;;;;;;;;;1.60;99.90;;;;;;2056992;28;19920;-68
2024/02/26 05:20:09;;;;;;;;;;;1.60;99.90;;;;;;2056332;28;20016;-69
2024/02/26 05:21:09;;;;;;;;;;;1.60;99.90;;;;;;2058740;28;19949;-68
2024/02/26 05:22:10;;;;;;;;;;;1.60;99.90;;;;;;2055093;28;20001;-68
2024/02/26 05:23:10;;;;;;;;;;;1.50;99.90;;;;;;2059733;28;19940;-69
2024/02/26 05:24:11;;;;;;;;;;;1.50;99.90;;;;;;2059624;28;20048;-68
2024/02/26 05:25:12;;;;;;;;;;;1.60;99.90;;;;;;2062155;28;19916;-69
2024/02/26 05:26:19;;;;;;;;;;;1.50;99.90;;;;;;2056855;28;19996;-70
2024/02/26 05:27:19;;;;;;;;;;;1.50;99.90;;;;;;2058881;28;19909;-68
2024/02/26 05:28:20;;;;;;;;;;;1.50;99.90;;;;;;2055920;28;20575;-68
2024/02/26 05:29:20;;;;;;;;;;;1.50;99.90;;;;;;2058626;28;20201;-68
2024/02/26 05:30:21;;;;;;;;;;;1.60;99.90;;;;;;2054769;28;19996;-69
2024/02/26 05:31:22;;;;;;;;;;;1.60;99.90;;;;;;2055739;28;19910;-69
2024/02/26 05:32:22;;;;;;;;;;;1.60;99.90;;;;;;2059502;28;19940;-70
2024/02/26 05:33:23;;;;;;;;;;;1.60;99.90;;;;;;2055685;28;19914;-69
2024/02/26 05:34:23;;;;;;;;;;;1.60;99.90;;;;;;2059407;28;19909;-69
2024/02/26 05:35:25;;;;;;;;;;;1.60;99.90;;;;;;2050323;28;20133;-70
2024/02/26 05:36:28;;;;;;;;;;;1.60;99.90;;;;;;2051048;28;20004;-70
2024/02/26 05:37:29;;;;;;;;;;;1.60;99.90;;;;;;2059625;28;20295;-70
2024/02/26 05:38:31;;;;;;;;;;;1.70;99.90;;;;;;2060647;28;19906;-69
2024/02/26 05:39:31;;;;;;;;;;;1.60;99.90;;;;;;2054823;28;20012;-69
2024/02/26 05:40:32;;;;;;;;;;;1.60;99.90;;;;;;2059676;28;20371;-68
2024/02/26 05:41:32;;;;;;;;;;;1.60;99.90;;;;;;2058793;28;19921;-68
2024/02/26 05:42:33;;;;;;;;;;;1.60;99.90;;;;;;2056148;28;19913;-68
2024/02/26 05:43:33;;;;;;;;;;;1.60;99.90;;;;;;2059406;28;20334;-68
2024/02/26 05:44:34;;;;;;;;;;;1.60;99.90;;;;;;2058986;28;19913;-68
2024/02/26 05:45:34;;;;;;;;;;;1.60;99.90;;;;;;2059301;28;19930;-69
2024/02/26 05:46:35;;;;;;;;;;;1.70;99.90;;;;;;2059367;28;19917;-68
2024/02/26 05:47:35;;;;;;;;;;;1.60;99.90;;;;;;2059197;28;20454;-68
2024/02/26 05:48:36;;;;;;;;;;;1.70;99.90;;;;;;2055255;28;20005;-68
2024/02/26 05:49:36;;;;;;;;;;;1.60;99.90;;;;;;2055763;28;20003;-70
2024/02/26 05:50:37;;;;;;;;;;;1.60;99.90;;;;;;2059183;28;20364;-69
2024/02/26 05:51:37;;;;;;;;;;;1.70;99.90;;;;;;2054564;28;19938;-69
2024/02/26 05:52:38;;;;;;;;;;;1.70;99.90;;;;;;2058587;28;19922;-69
2024/02/26 05:53:39;;;;;;;;;;;1.70;99.90;;;;;;2059229;28;19917;-69
2024/02/26 05:54:39;;;;;;;;;;;1.70;99.90;;;;;;2055323;28;19910;-69
2024/02/26 05:55:39;;;;;;;;;;;1.70;99.90;;;;;;2057142;28;19921;-68
2024/02/26 05:56:40;;;;;;;;;;;1.70;99.90;;;;;;2059406;28;20024;-68
2024/02/26 05:57:40;;;;;;;;;;;1.70;99.90;;;;;;2058412;28;19913;-69
2024/02/26 05:58:41;;;;;;;;;;;1.70;99.90;;;;;;2052161;28;19917;-68
2024/02/26 05:59:41;;;;;;;;;;;1.80;99.90;;;;;;2058640;28;20380;-69